Time;durP1;ratioP1;P1;durP2;ratioP2;P2;SDS_P1;SDS_P2;PMS_P1;PMS_P2;Temp;Humidity;BMP_temperature;BMP_pressure;BME280_temperature;BME280_humidity;BME280_pressure;Samples;Min_cycle;Max_cycle;Signal;HPM_P1;HPM_P2
2023/03/30 00:00:45;;;;;;;14.90;11.03;;;9.80;99.90;;;9.17;88.25;100216.03;5016730;28;20203;-76
2023/03/30 00:03:18;;;;;;;12.13;9.77;;;9.80;99.90;;;9.17;87.91;100210.69;5016097;28;20666;-75
2023/03/30 00:05:51;;;;;;;14.57;10.87;;;9.80;99.90;;;9.17;87.42;100202.69;5016144;28;20724;-75
2023/03/30 00:08:27;;;;;;;14.57;11.33;;;9.80;99.90;;;9.16;87.43;100193.84;5016354;28;20196;-76
2023/03/30 00:11:05;;;;;;;14.90;11.00;;;9.80;99.90;;;9.17;87.69;100200.00;5016561;28;20250;-76
2023/03/30 00:13:41;;;;;;;12.67;10.43;;;9.80;99.90;;;9.15;87.27;100202.00;5016283;28;20194;-76
2023/03/30 00:16:16;;;;;;;11.67;9.40;;;9.80;99.90;;;9.14;87.64;100200.34;5016269;28;20242;-76
2023/03/30 00:18:49;;;;;;;11.43;9.47;;;9.70;99.90;;;9.12;87.84;100208.50;5015579;28;20214;-76
2023/03/30 00:21:21;;;;;;;12.10;8.70;;;9.70;99.90;;;9.12;87.40;100196.97;5016077;28;20219;-75
2023/03/30 00:23:54;;;;;;;12.57;9.57;;;9.80;99.90;;;9.13;87.11;100193.31;5015752;28;20191;-76
2023/03/30 00:26:26;;;;;;;11.73;8.30;;;9.70;99.90;;;9.12;87.35;100186.31;5015679;28;20727;-76
2023/03/30 00:28:59;;;;;;;11.00;8.40;;;9.70;99.90;;;9.13;86.65;100179.97;5015624;28;20537;-76
2023/03/30 00:31:31;;;;;;;11.40;7.67;;;9.80;99.90;;;9.13;86.15;100177.31;5015942;28;20328;-76
2023/03/30 00:34:03;;;;;;;11.20;7.80;;;9.80;99.90;;;9.11;86.58;100158.75;5015952;28;20290;-76
2023/03/30 00:36:36;;;;;;;10.30;7.90;;;9.80;99.90;;;9.11;85.92;100150.75;5015950;28;20243;-76
2023/03/30 00:39:08;;;;;;;11.60;8.30;;;9.70;99.90;;;9.12;86.28;100159.59;5015840;28;20196;-76
2023/03/30 00:41:41;;;;;;;9.77;7.67;;;9.70;99.90;;;9.10;85.91;100157.09;5015958;28;20184;-76
2023/03/30 00:45:06;;;;;;;11.33;7.97;;;9.70;99.90;;;9.10;86.28;100153.59;5015679;28;20196;-75
2023/03/30 00:47:41;;;;;;;9.97;8.27;;;9.70;99.90;;;9.08;86.32;100136.88;5015608;28;20203;-75
2023/03/30 00:50:15;;;;;;;10.57;8.30;;;9.70;99.90;;;9.06;86.24;100128.22;5015293;28;20714;-76
2023/03/30 00:52:52;;;;;;;15.00;8.00;;;9.70;99.90;;;9.05;85.65;100127.38;5015645;28;20219;-76
2023/03/30 00:55:28;;;;;;;9.77;7.77;;;9.70;99.90;;;9.04;85.79;100131.03;5015374;28;20231;-76
2023/03/30 00:58:02;;;;;;;9.10;7.73;;;9.70;99.90;;;9.01;86.23;100119.84;5015477;28;20191;-76
2023/03/30 01:00:37;;;;;;;10.00;6.83;;;9.60;99.90;;;8.98;85.83;100109.50;5015382;28;20195;-75
2023/03/30 01:03:17;;;;;;;10.50;7.43;;;9.60;99.90;;;8.95;86.11;100105.34;5015344;28;20194;-75
2023/03/30 01:05:51;;;;;;;9.63;7.40;;;9.60;99.90;;;8.95;86.26;100101.84;5015080;28;20243;-75
2023/03/30 01:08:26;;;;;;;8.07;7.00;;;9.60;99.90;;;8.92;86.05;100100.34;5014941;28;20633;-75
2023/03/30 01:11:01;;;;;;;7.90;7.10;;;9.60;99.90;;;8.91;86.00;100105.81;5016023;28;20300;-75
2023/03/30 01:13:36;;;;;;;8.30;7.10;;;9.50;99.90;;;8.89;86.03;100107.84;5017459;28;20195;-75
2023/03/30 01:16:24;;;;;;;9.10;7.00;;;9.50;99.90;;;8.88;85.83;100114.16;5014948;28;20231;-75
2023/03/30 01:19:10;;;;;;;11.53;7.27;;;9.50;99.90;;;8.87;85.70;100107.19;5015121;28;20191;-75
2023/03/30 01:22:13;;;;;;;8.97;7.20;;;9.50;99.90;;;8.83;85.40;100117.34;5015012;28;20187;-75
2023/03/30 01:25:37;;;;;;;10.47;7.13;;;9.50;99.90;;;8.81;85.68;100103.31;5014942;28;20209;-75
2023/03/30 01:28:35;;;;;;;10.97;6.77;;;9.40;99.90;;;8.81;85.75;100102.47;5000039;28;20277;-75
2023/03/30 01:31:29;;;;;;;8.17;6.90;;;9.40;99.90;;;8.76;85.81;100097.66;5014700;28;20202;-75
2023/03/30 01:34:43;;;;;;;8.67;6.97;;;9.40;99.90;;;8.76;86.22;100095.00;5014773;28;20218;-75
2023/03/30 01:38:05;;;;;;;7.50;6.67;;;9.40;99.90;;;8.79;86.32;100077.81;5014229;28;20616;-75
2023/03/30 01:40:44;;;;;;;9.00;6.70;;;9.40;99.90;;;8.77;85.73;100077.94;5014791;28;20214;-75
2023/03/30 01:43:26;;;;;;;10.03;7.37;;;9.40;99.90;;;8.77;85.80;100064.59;5014565;28;20191;-75
2023/03/30 01:46:03;;;;;;;8.00;6.63;;;9.40;99.90;;;8.73;85.99;100062.44;5014425;28;20234;-76
2023/03/30 01:48:44;;;;;;;11.43;7.67;;;9.40;99.90;;;8.71;85.90;100059.09;5014481;28;20195;-76
2023/03/30 01:51:27;;;;;;;7.63;6.43;;;9.30;99.90;;;8.70;85.92;100052.13;5014466;28;20562;-76
2023/03/30 01:54:08;;;;;;;8.47;6.73;;;9.30;99.90;;;8.68;85.63;100044.25;5014369;28;20192;-76
2023/03/30 01:56:48;;;;;;;7.67;6.60;;;9.30;99.90;;;8.66;85.77;100039.06;5014208;28;20238;-76
2023/03/30 01:59:28;;;;;;;10.57;6.60;;;9.30;99.90;;;8.62;85.41;100031.59;5014052;28;20204;-76
2023/03/30 02:02:05;;;;;;;9.30;6.70;;;9.30;99.90;;;8.60;85.83;100029.06;5013993;28;20641;-75
2023/03/30 02:04:45;;;;;;;7.37;6.47;;;9.20;99.90;;;8.59;85.73;100022.09;5014038;28;20258;-76
2023/03/30 02:07:21;;;;;;;7.20;6.27;;;9.20;99.90;;;8.56;86.01;100011.72;5013853;28;20708;-76
2023/03/30 02:09:58;;;;;;;8.63;6.43;;;9.20;99.90;;;8.56;85.52;100014.38;5013864;28;20195;-75
2023/03/30 02:12:33;;;;;;;7.87;6.47;;;9.20;99.90;;;8.55;85.48;100018.06;5014169;28;20203;-76
2023/03/30 02:15:10;;;;;;;8.93;6.17;;;9.20;99.90;;;8.52;85.25;100015.72;5014056;28;20358;-76
2023/03/30 02:17:44;;;;;;;6.83;5.87;;;9.20;99.90;;;8.49;85.82;100012.56;5014020;28;20214;-76
2023/03/30 02:20:18;;;;;;;7.80;6.30;;;9.10;99.90;;;8.45;85.89;100001.38;5014561;28;20191;-76
2023/03/30 02:22:50;;;;;;;8.00;6.27;;;9.10;99.90;;;8.46;86.04;100003.03;5013843;28;20286;-76
2023/03/30 02:25:22;;;;;;;8.13;5.93;;;9.10;99.90;;;8.43;85.98;99995.34;5013747;28;20223;-75
2023/03/30 02:27:55;;;;;;;7.73;5.83;;;9.00;99.90;;;8.44;86.54;100005.03;5013572;28;20196;-75
2023/03/30 02:30:34;;;;;;;8.33;5.50;;;9.10;99.90;;;8.45;86.38;100006.72;5013742;28;20655;-75
2023/03/30 02:33:13;;;;;;;7.07;5.77;;;9.10;99.90;;;8.48;86.64;99992.22;5013531;28;20192;-75
2023/03/30 02:36:04;;;;;;;7.93;5.23;;;9.10;99.90;;;8.51;87.00;99989.22;5013450;28;20285;-75
2023/03/30 02:39:07;;;;;;;7.50;5.20;;;9.20;99.90;;;8.53;86.99;99980.03;5013415;28;20637;-75
2023/03/30 02:42:04;;;;;;;6.23;5.40;;;9.20;99.90;;;8.51;86.78;99979.38;5013034;28;20632;-73
2023/03/30 02:44:48;;;;;;;8.53;5.57;;;9.20;99.90;;;8.53;86.77;99977.38;5013574;28;20195;-76
2023/03/30 02:47:33;;;;;;;7.53;5.63;;;9.20;99.90;;;8.56;86.79;99954.88;5013950;28;20226;-76
2023/03/30 02:50:16;;;;;;;9.03;5.27;;;9.20;99.90;;;8.61;86.45;99929.34;5013432;28;20682;-76
2023/03/30 02:52:58;;;;;;;6.77;5.60;;;9.30;99.90;;;8.62;86.05;99923.03;5013423;28;20571;-76
2023/03/30 02:55:38;;;;;;;7.53;5.93;;;9.30;99.90;;;8.64;86.49;99937.03;5013615;28;20310;-76
2023/03/30 02:58:20;;;;;;;6.50;5.30;;;9.30;99.90;;;8.65;86.43;99938.69;5013662;28;20210;-76
2023/03/30 03:01:00;;;;;;;5.77;5.03;;;9.30;99.90;;;8.66;86.59;99937.66;5013638;28;20198;-76
2023/03/30 03:03:42;;;;;;;7.67;5.30;;;9.30;99.90;;;8.66;86.96;99950.22;5013602;28;20234;-77
2023/03/30 03:06:15;;;;;;;8.40;5.83;;;9.30;99.90;;;8.68;87.04;99948.19;5013104;28;20317;-76
2023/03/30 03:08:48;;;;;;;9.20;5.90;;;9.30;99.90;;;8.69;86.69;99941.03;5013573;28;20535;-76
2023/03/30 03:11:20;;;;;;;6.63;5.20;;;9.30;99.90;;;8.68;87.03;99934.84;5013547;28;20298;-76
2023/03/30 03:13:54;;;;;;;8.97;5.37;;;9.30;99.90;;;8.68;86.86;99948.19;5013177;28;20707;-76
2023/03/30 03:16:27;;;;;;;8.23;5.33;;;9.30;99.90;;;8.68;86.81;99953.53;5013033;28;20238;-76
2023/03/30 03:18:59;;;;;;;7.07;5.20;;;9.30;99.90;;;8.67;86.84;99951.84;5013190;28;20215;-77
2023/03/30 03:21:31;;;;;;;6.03;5.03;;;9.30;99.90;;;8.69;87.12;99949.03;5013456;28;20188;-77
2023/03/30 03:24:03;;;;;;;5.80;5.10;;;9.40;99.90;;;8.72;87.11;99946.03;5013461;28;20250;-77
2023/03/30 03:26:35;;;;;;;7.47;5.27;;;9.40;99.90;;;8.74;87.27;99946.69;5013034;28;20708;-77
2023/03/30 03:29:07;;;;;;;6.60;5.13;;;9.50;99.90;;;8.75;87.72;99932.34;5013057;28;20227;-77
2023/03/30 03:31:40;;;;;;;7.87;4.53;;;9.50;99.90;;;8.79;87.46;99936.34;5013355;28;20192;-77
2023/03/30 03:34:12;;;;;;;7.87;4.70;;;9.50;99.90;;;8.89;87.95;99931.66;5013392;28;20594;-77
2023/03/30 03:36:44;;;;;;;8.67;5.50;;;9.50;99.90;;;8.89;87.04;99929.00;5012804;28;20231;-77
2023/03/30 03:39:16;;;;;;;8.20;4.83;;;9.60;99.90;;;8.89;87.76;99912.97;5013268;28;20199;-77
2023/03/30 03:41:48;;;;;;;7.10;4.50;;;9.60;99.90;;;8.88;87.28;99905.97;5012870;28;20195;-77
2023/03/30 03:44:20;;;;;;;7.43;5.13;;;9.60;99.90;;;8.89;87.57;99900.47;5013188;28;20196;-77
2023/03/30 03:46:53;;;;;;;7.23;4.90;;;9.60;99.90;;;8.89;87.65;99899.63;5013055;28;20224;-77
2023/03/30 03:49:25;;;;;;;6.53;5.10;;;9.60;99.90;;;8.91;87.84;99900.28;5012912;28;20191;-77
2023/03/30 03:51:57;;;;;;;7.00;4.37;;;9.60;99.90;;;8.98;87.13;99904.78;5012975;28;20200;-77
2023/03/30 03:54:28;;;;;;;8.63;4.60;;;9.70;99.90;;;8.97;86.91;99899.63;5016903;28;20191;-77
2023/03/30 03:57:00;;;;;;;7.07;4.60;;;9.70;99.90;;;8.98;86.93;99886.09;5016423;28;20246;-77
2023/03/30 03:59:32;;;;;;;7.80;4.57;;;9.70;99.90;;;9.09;86.62;99893.75;5016567;28;20188;-77
2023/03/30 04:02:05;;;;;;;6.10;4.77;;;9.80;99.90;;;9.09;86.56;99884.91;5016203;28;20586;-77
2023/03/30 04:04:37;;;;;;;7.20;4.97;;;9.80;99.90;;;9.26;85.14;99883.00;5016303;28;20357;-77
2023/03/30 04:07:10;;;;;;;7.53;4.50;;;10.00;99.90;;;9.23;85.72;99888.69;5015995;28;20767;-77
2023/03/30 04:09:42;;;;;;;6.73;4.57;;;9.90;99.90;;;9.27;85.56;99888.19;5016330;28;20195;-77
2023/03/30 04:12:14;;;;;;;7.23;4.40;;;10.00;99.90;;;9.33;84.98;99890.16;5016404;28;20195;-77
2023/03/30 04:14:45;;;;;;;9.83;4.40;;;10.00;99.90;;;9.36;85.07;99884.47;5016252;28;20565;-77
2023/03/30 04:17:22;;;;;;;7.03;4.20;;;10.10;99.90;;;9.46;84.14;99890.44;5016036;28;20319;-77
2023/03/30 04:19:55;;;;;;;6.67;3.97;;;10.10;99.90;;;9.43;84.14;99874.75;5016189;28;20199;-77
2023/03/30 04:22:29;;;;;;;6.70;4.20;;;10.10;99.90;;;9.51;83.78;99877.41;5015851;28;20619;-77
2023/03/30 04:25:04;;;;;;;6.90;4.40;;;10.20;99.90;;;9.55;83.20;99868.03;5016059;28;20191;-77
2023/03/30 04:27:36;;;;;;;6.20;4.20;;;10.20;99.90;;;9.62;82.96;99855.59;5016025;28;20191;-77
2023/03/30 04:30:10;;;;;;;6.27;4.10;;;10.30;99.90;;;9.62;82.69;99863.63;5015976;28;20198;-77
2023/03/30 04:32:45;;;;;;;6.97;4.13;;;10.30;99.90;;;9.74;82.17;99847.19;5016160;28;20191;-77
2023/03/30 04:35:18;;;;;;;8.73;4.90;;;10.40;99.90;;;9.73;82.11;99846.34;5015798;28;20310;-77
2023/03/30 04:37:51;;;;;;;8.20;4.30;;;10.40;99.90;;;9.71;82.10;99840.38;5015985;28;20242;-77
2023/03/30 04:40:23;;;;;;;7.17;4.37;;;10.40;99.90;;;9.77;81.91;99854.84;5015796;28;20200;-77
2023/03/30 04:43:00;;;;;;;6.53;4.50;;;10.50;99.90;;;9.69;82.08;99845.06;5015362;28;20563;-77
2023/03/30 04:45:33;;;;;;;7.90;4.10;;;10.40;99.90;;;9.62;82.90;99839.56;5015587;28;20223;-77
2023/03/30 04:48:06;;;;;;;5.33;4.10;;;10.30;99.90;;;9.54;83.15;99839.63;5015311;28;20632;-77
2023/03/30 04:50:38;;;;;;;5.63;3.67;;;10.20;99.90;;;9.49;83.53;99844.66;5015614;28;20258;-77
2023/03/30 04:53:10;;;;;;;6.73;4.10;;;10.20;99.90;;;9.50;83.51;99851.69;5015471;28;20207;-77
2023/03/30 04:55:43;;;;;;;6.10;4.17;;;10.20;99.90;;;9.49;83.30;99850.00;5015439;28;20303;-77
2023/03/30 04:58:17;;;;;;;8.20;4.33;;;10.20;99.90;;;9.50;84.04;99849.00;5015721;28;20219;-76
2023/03/30 05:00:48;;;;;;;6.60;3.70;;;10.20;99.90;;;9.54;83.28;99858.34;5015122;28;20644;-76
2023/03/30 05:03:21;;;;;;;7.40;3.93;;;10.20;99.90;;;9.62;82.94;99858.28;5015056;28;20230;-76
2023/03/30 05:05:54;;;;;;;9.27;4.27;;;10.30;99.90;;;9.72;81.88;99850.06;5015112;28;20235;-77
2023/03/30 05:08:26;;;;;;;6.00;3.73;;;10.40;99.90;;;9.74;82.02;99847.19;5015235;28;20206;-77
2023/03/30 05:11:01;;;;;;;7.33;3.70;;;10.40;99.90;;;9.65;82.36;99841.06;5015220;28;20195;-77
2023/03/30 05:13:33;;;;;;;7.07;4.37;;;10.40;99.90;;;9.61;82.90;99840.59;5015177;28;20249;-77
2023/03/30 05:16:05;;;;;;;6.73;4.00;;;10.30;99.90;;;9.58;82.87;99840.94;5015069;28;20235;-77
2023/03/30 05:18:38;;;;;;;5.97;4.00;;;10.30;99.90;;;9.57;83.59;99849.97;5014992;28;20222;-77
2023/03/30 05:21:11;;;;;;;5.03;4.17;;;10.30;99.90;;;9.56;82.90;99844.78;5015009;28;20254;-77
2023/03/30 05:23:43;;;;;;;4.70;4.10;;;10.20;99.90;;;9.55;83.45;99846.66;5015016;28;20211;-77
2023/03/30 05:26:15;;;;;;;7.87;4.10;;;10.20;99.90;;;9.51;83.48;99834.66;5014875;28;20244;-77
2023/03/30 05:28:46;;;;;;;6.27;3.80;;;10.20;99.90;;;9.51;83.47;99849.84;5015192;28;20196;-77
2023/03/30 05:31:18;;;;;;;7.10;4.00;;;10.20;99.90;;;9.48;83.56;99845.69;5014861;28;20211;-77
2023/03/30 05:33:51;;;;;;;5.60;4.00;;;10.20;99.90;;;9.46;83.58;99842.34;5014839;28;20188;-77
2023/03/30 05:36:23;;;;;;;5.93;3.87;;;10.10;99.90;;;9.45;83.17;99829.97;5014433;28;20223;-77
2023/03/30 05:38:56;;;;;;;6.43;3.50;;;10.10;99.90;;;9.45;83.44;99835.31;5014674;28;20227;-77
2023/03/30 05:41:27;;;;;;;8.27;3.60;;;10.20;99.90;;;9.48;83.14;99828.81;5014697;28;20192;-77
2023/03/30 05:43:59;;;;;;;5.57;3.83;;;10.20;99.90;;;9.48;83.21;99826.16;5015438;28;20200;-77
2023/03/30 05:46:31;;;;;;;4.97;3.80;;;10.20;99.90;;;9.48;83.13;99835.00;5014546;28;20235;-77
2023/03/30 05:49:04;;;;;;;5.93;3.40;;;10.20;99.90;;;9.49;83.41;99831.28;5014254;28;20695;-77
2023/03/30 05:51:36;;;;;;;8.60;4.00;;;10.20;99.90;;;9.50;83.51;99830.31;5014530;28;20203;-77
2023/03/30 05:54:13;;;;;;;6.00;3.50;;;10.20;99.90;;;9.56;82.98;99823.41;5014464;28;20192;-77
2023/03/30 05:56:45;;;;;;;5.60;3.40;;;10.30;99.90;;;9.57;83.37;99833.09;5014325;28;20234;-77
2023/03/30 05:59:18;;;;;;;7.07;3.47;;;10.30;99.90;;;9.62;82.83;99836.91;5014034;28;20588;-77
2023/03/30 06:01:49;;;;;;;5.67;3.33;;;10.30;99.90;;;9.71;81.89;99836.84;5014395;28;20191;-77
2023/03/30 06:04:22;;;;;;;5.63;3.13;;;10.40;99.90;;;9.82;81.28;99845.31;5013896;28;20707;-77
2023/03/30 06:06:54;;;;;;;6.13;3.30;;;10.50;99.90;;;9.80;81.85;99847.31;5014174;28;20259;-77
2023/03/30 06:09:26;;;;;;;7.00;3.80;;;10.50;99.90;;;9.78;82.40;99841.31;5014196;28;20192;-77
2023/03/30 06:11:59;;;;;;;7.17;3.03;;;10.50;99.90;;;9.78;82.33;99845.84;5014172;28;20250;-77
2023/03/30 06:14:30;;;;;;;6.30;3.53;;;10.40;99.90;;;9.80;82.25;99843.81;5014087;28;20202;-77
2023/03/30 06:17:02;;;;;;;7.00;3.23;;;10.40;99.90;;;9.78;82.17;99830.63;5013841;28;20238;-77
2023/03/30 06:19:36;;;;;;;6.13;3.57;;;10.50;99.90;;;9.80;81.65;99838.47;5013741;28;20695;-77
2023/03/30 06:22:08;;;;;;;7.13;3.57;;;10.50;99.90;;;9.83;82.30;99838.94;5014060;28;20203;-77
2023/03/30 06:24:40;;;;;;;5.50;3.47;;;10.50;99.90;;;9.85;82.72;99828.09;5014025;28;20286;-77
2023/03/30 06:27:12;;;;;;;5.97;3.63;;;10.60;99.90;;;10.03;80.80;99823.28;5013941;28;20241;-77
2023/03/30 06:29:44;;;;;;;7.50;3.67;;;10.70;99.90;;;9.97;82.14;99818.63;5013940;28;20184;-77
2023/03/30 06:32:15;;;;;;;4.10;3.37;;;10.70;99.90;;;10.03;81.88;99812.59;5014034;28;20196;-77
2023/03/30 06:34:49;;;;;;;4.23;3.07;;;10.70;99.90;;;10.07;81.98;99809.34;5014262;28;20215;-77
2023/03/30 06:37:21;;;;;;;5.63;3.43;;;10.70;99.90;;;10.08;81.85;99803.00;5013907;28;20358;-77
2023/03/30 06:39:53;;;;;;;7.83;3.47;;;10.80;99.90;;;10.13;81.86;99802.47;5013802;28;20226;-77
2023/03/30 06:42:26;;;;;;;7.37;3.53;;;10.80;99.90;;;10.17;81.89;99799.25;5013847;28;20195;-76
2023/03/30 06:44:57;;;;;;;5.67;3.20;;;10.90;99.90;;;10.22;82.64;99789.88;5013846;28;20196;-76
2023/03/30 06:47:29;;;;;;;7.63;3.27;;;11.00;99.90;;;10.25;82.71;99790.34;5013689;28;20636;-76
2023/03/30 06:50:03;;;;;;;6.67;3.20;;;11.00;99.90;;;10.32;81.98;99785.94;5015027;28;20192;-76
2023/03/30 06:52:38;;;;;;;5.90;3.37;;;11.00;99.90;;;10.35;81.68;99788.25;5014220;28;20192;-77
2023/03/30 06:55:10;;;;;;;5.93;3.30;;;11.10;99.90;;;10.39;82.37;99791.38;5014166;28;20647;-75
2023/03/30 06:57:42;;;;;;;5.90;3.03;;;11.10;99.90;;;10.41;82.51;99789.38;5015042;28;20196;-76
2023/03/30 07:00:17;;;;;;;5.77;3.30;;;11.10;99.90;;;10.43;82.15;99796.19;5015324;28;20199;-76
2023/03/30 07:02:48;;;;;;;5.43;3.20;;;11.20;99.90;;;10.46;82.37;99793.16;5014346;28;20191;-76
2023/03/30 07:05:23;;;;;;;5.33;3.33;;;11.20;99.90;;;10.50;83.16;99799.81;5013291;28;20241;-76
2023/03/30 07:07:57;;;;;;;6.67;2.90;;;11.20;99.90;;;10.60;80.61;99800.38;5013272;28;20544;-77
2023/03/30 07:10:29;;;;;;;5.00;3.30;;;11.30;99.90;;;10.58;82.05;99807.72;5013217;28;20681;-77
2023/03/30 07:13:00;;;;;;;6.07;3.57;;;11.30;99.90;;;10.61;81.79;99807.41;5013548;28;20195;-77
2023/03/30 07:15:33;;;;;;;5.40;3.37;;;11.30;99.90;;;10.62;81.30;99819.75;5013124;28;20238;-77
2023/03/30 07:18:06;;;;;;;9.13;3.50;;;11.30;99.90;;;10.72;80.82;99822.16;5013413;28;20219;-77
2023/03/30 07:20:39;;;;;;;4.57;3.50;;;11.40;99.90;;;10.90;79.37;99819.13;5013495;28;20206;-77
2023/03/30 07:23:11;;;;;;;9.13;3.47;;;11.60;99.90;;;10.96;80.19;99821.88;5013421;28;20200;-77
2023/03/30 07:25:43;;;;;;;6.50;3.80;;;11.60;99.90;;;10.91;80.41;99812.75;5013638;28;20235;-78
2023/03/30 07:28:15;;;;;;;7.13;3.50;;;11.50;99.90;;;10.88;81.12;99808.59;5016826;28;20561;-78
2023/03/30 07:30:47;;;;;;;9.80;3.67;;;11.60;99.90;;;10.97;80.49;99814.69;5017115;28;20196;-78
2023/03/30 07:33:20;;;;;;;6.30;3.37;;;11.60;99.90;;;10.96;80.29;99816.53;5017101;28;20260;-78
2023/03/30 07:35:54;;;;;;;5.03;3.10;;;11.60;99.90;;;11.19;77.97;99814.59;5016677;28;20277;-78
2023/03/30 07:38:27;;;;;;;5.93;2.90;;;11.80;99.90;;;11.40;76.22;99818.34;5016954;28;20254;-78
2023/03/30 07:40:59;;;;;;;6.23;2.87;;;12.00;99.90;;;11.63;75.05;99825.22;5016643;28;20192;-78
2023/03/30 07:43:31;;;;;;;6.87;2.80;;;12.20;99.90;;;11.65;75.10;99820.50;5016874;28;20192;-78
2023/03/30 07:46:03;;;;;;;8.40;2.63;;;12.30;99.90;;;11.63;75.40;99825.22;5016443;28;20734;-77
2023/03/30 07:48:35;;;;;;;5.07;2.90;;;12.30;99.90;;;11.92;72.79;99828.84;5016822;28;20191;-77
2023/03/30 07:51:12;;;;;;;5.90;2.73;;;12.50;99.20;;;11.85;73.98;99830.66;5016732;28;20192;-77
2023/03/30 07:53:47;;;;;;;6.47;2.63;;;12.50;99.50;;;11.82;74.61;99822.97;5016533;28;20204;-77
2023/03/30 07:56:18;;;;;;;6.20;3.00;;;12.50;99.70;;;11.89;74.75;99819.31;5016592;28;20239;-77
2023/03/30 07:58:50;;;;;;;6.70;2.83;;;12.50;99.70;;;11.96;74.04;99824.75;5016545;28;20215;-77
2023/03/30 08:01:24;;;;;;;8.83;3.20;;;12.60;99.30;;;12.05;72.82;99818.25;5016207;28;20645;-77
2023/03/30 08:03:57;;;;;;;5.53;2.97;;;12.60;99.20;;;12.02;72.67;99824.00;5016480;28;20188;-77
2023/03/30 08:06:31;;;;;;;6.03;2.90;;;12.60;99.00;;;12.14;72.25;99817.09;5016506;28;20597;-78
2023/03/30 08:09:03;;;;;;;7.10;2.97;;;12.70;98.90;;;12.25;71.37;99826.47;5016456;28;20271;-78
2023/03/30 08:11:35;;;;;;;4.33;2.50;;;12.80;98.40;;;12.19;73.18;99820.84;5016398;28;20196;-78
2023/03/30 08:14:07;;;;;;;5.00;2.80;;;12.90;98.90;;;12.26;72.38;99828.97;5016379;28;20196;-78
2023/03/30 08:16:39;;;;;;;6.27;2.70;;;12.80;98.80;;;12.35;71.85;99826.97;5016421;28;20231;-77
2023/03/30 08:19:10;;;;;;;5.90;2.83;;;12.90;98.40;;;12.39;71.69;99826.41;5016185;28;20212;-77
2023/03/30 08:21:43;;;;;;;3.53;2.33;;;13.00;98.50;;;12.70;69.24;99824.16;5015836;28;20637;-77
2023/03/30 08:24:15;;;;;;;6.20;2.47;;;13.20;97.60;;;12.80;68.92;99822.97;5016192;28;20203;-77
2023/03/30 08:26:47;;;;;;;3.93;2.47;;;13.30;97.30;;;12.73;70.22;99822.09;5016571;28;20227;-77
2023/03/30 08:29:19;;;;;;;7.53;2.53;;;13.30;97.60;;;12.84;69.43;99835.84;5015706;28;20195;-77
2023/03/30 08:31:52;;;;;;;8.40;2.50;;;13.40;97.50;;;12.91;69.74;99830.50;5015980;28;20191;-77
2023/03/30 08:34:24;;;;;;;5.17;2.37;;;13.50;97.20;;;12.81;69.92;99835.41;5015756;28;20246;-77
2023/03/30 08:36:57;;;;;;;6.47;2.83;;;13.40;97.50;;;12.73;71.06;99835.53;5015926;28;20310;-77
2023/03/30 08:39:32;;;;;;;7.50;2.60;;;13.40;97.90;;;12.73;70.35;99838.22;5015087;28;20215;-77
2023/03/30 08:42:29;;;;;;;7.17;2.97;;;13.30;97.90;;;12.80;70.85;99825.66;5015709;28;20191;-77
2023/03/30 08:45:04;;;;;;;9.33;3.10;;;13.30;97.90;;;12.83;70.54;99815.38;5015652;28;20188;-77
2023/03/30 08:47:41;;;;;;;6.37;2.50;;;13.50;97.80;;;12.93;70.61;99812.31;5015713;28;20194;-77
2023/03/30 08:50:30;;;;;;;6.00;2.70;;;13.50;98.00;;;13.08;71.01;99810.34;5015709;28;20187;-77
2023/03/30 08:53:06;;;;;;;6.30;2.47;;;13.70;98.30;;;13.09;71.24;99801.28;5015343;28;20187;-77
2023/03/30 08:55:46;;;;;;;3.93;2.47;;;13.70;98.10;;;13.43;68.14;99809.28;5015489;28;20223;-77
2023/03/30 08:58:30;;;;;;;6.10;2.90;;;13.90;97.00;;;13.43;68.90;99805.75;5015560;28;20199;-77
2023/03/30 09:01:13;;;;;;;4.83;3.00;;;14.00;97.00;;;13.38;69.21;99811.75;5015633;28;20211;-77
2023/03/30 09:04:07;;;;;;;6.57;2.80;;;14.00;96.90;;;13.26;70.70;99797.22;5015379;28;20286;-77
2023/03/30 09:06:49;;;;;;;7.23;2.87;;;13.90;97.50;;;13.29;70.67;99794.13;5014899;28;20576;-78
2023/03/30 09:09:27;;;;;;;8.20;2.90;;;13.90;97.60;;;13.16;72.48;99796.75;5015019;28;20647;-77
2023/03/30 09:12:12;;;;;;;7.00;3.43;;;13.80;98.50;;;13.25;71.68;99792.06;5015532;28;20195;-77
2023/03/30 09:14:49;;;;;;;8.77;2.97;;;13.80;98.30;;;13.45;71.00;99801.84;5015137;28;20195;-77
2023/03/30 09:17:31;;;;;;;7.77;2.90;;;14.00;97.70;;;13.49;70.07;99784.25;5015003;28;20234;-77
2023/03/30 09:20:12;;;;;;;7.40;3.23;;;14.10;97.70;;;13.52;70.73;99797.34;5014989;28;20303;-77
2023/03/30 09:22:47;;;;;;;8.33;3.20;;;14.10;97.70;;;13.75;69.10;99796.13;5014745;28;20654;-77
2023/03/30 09:25:29;;;;;;;7.67;2.73;;;14.20;97.40;;;13.77;68.86;99799.47;5014928;28;20230;-77
2023/03/30 09:28:12;;;;;;;7.00;3.23;;;14.30;96.90;;;13.90;68.63;99807.56;5014928;28;20196;-78
2023/03/30 09:30:50;;;;;;;7.93;3.03;;;14.40;96.70;;;13.97;67.53;99800.34;5014894;28;20191;-77
2023/03/30 09:33:38;;;;;;;8.33;2.77;;;14.50;96.30;;;14.11;66.72;99796.59;5014838;28;20226;-77
2023/03/30 09:36:17;;;;;;;6.17;2.90;;;14.60;95.90;;;14.13;67.03;99805.31;5014744;28;20227;-77
2023/03/30 09:38:49;;;;;;;7.07;3.83;;;14.70;95.90;;;14.12;67.04;99792.88;5014459;28;20707;-77
2023/03/30 09:41:41;;;;;;;7.10;3.33;;;14.70;96.10;;;14.35;66.04;99801.41;5014306;28;20695;-77
2023/03/30 09:44:25;;;;;;;7.33;3.50;;;14.90;95.50;;;14.35;68.47;99790.63;5014397;28;20192;-77
2023/03/30 09:47:02;;;;;;;5.87;2.73;;;14.90;96.40;;;14.54;64.69;99781.72;5014558;28;20235;-77
2023/03/30 09:49:41;;;;;;;6.07;3.00;;;15.00;94.90;;;14.67;63.71;99792.47;5013954;28;20187;-77
2023/03/30 09:52:25;;;;;;;5.73;2.70;;;15.20;94.30;;;14.50;64.22;99795.81;5014711;28;20194;-77
2023/03/30 09:55:02;;;;;;;10.77;2.83;;;15.10;94.30;;;14.56;62.96;99795.81;5014666;28;20222;-77
2023/03/30 09:57:36;;;;;;;4.83;2.50;;;15.10;93.90;;;14.41;63.20;99792.53;5014474;28;20191;-77
2023/03/30 10:00:30;;;;;;;8.47;2.80;;;15.00;93.90;;;14.34;63.81;99797.06;5014370;28;20310;-77
2023/03/30 10:03:05;;;;;;;8.90;2.80;;;14.90;94.20;;;14.24;64.22;99815.47;5014394;28;20203;-78
2023/03/30 10:05:40;;;;;;;8.17;2.30;;;14.80;94.40;;;14.10;68.80;99832.66;5013942;28;20242;-77
2023/03/30 10:08:24;;;;;;;4.63;2.77;;;14.70;96.20;;;13.80;72.11;99853.66;5013967;28;20681;-77
2023/03/30 10:11:02;;;;;;;6.90;3.13;;;14.40;98.00;;;13.53;73.60;99838.47;5014238;28;20218;-77
2023/03/30 10:13:40;;;;;;;5.70;3.20;;;14.10;98.80;;;13.37;75.17;99841.50;5013895;28;20234;-77
2023/03/30 10:16:22;;;;;;;7.33;3.20;;;13.90;99.80;;;13.28;76.73;99835.50;5014518;28;20227;-77
2023/03/30 10:19:01;;;;;;;5.90;3.20;;;13.80;99.90;;;13.23;77.08;99829.88;5014099;28;20199;-77
2023/03/30 10:21:39;;;;;;;6.83;3.40;;;13.80;99.90;;;13.30;78.53;99821.84;5014078;28;20211;-77
2023/03/30 10:24:22;;;;;;;8.43;3.40;;;13.80;99.90;;;13.30;77.58;99821.84;5014063;28;20206;-77
2023/03/30 10:26:58;;;;;;;7.87;3.57;;;13.80;99.90;;;13.33;75.66;99818.75;5013876;28;20306;-77
2023/03/30 10:29:33;;;;;;;7.63;3.23;;;13.90;99.90;;;13.37;77.71;99814.63;5013977;28;20203;-77
2023/03/30 10:32:15;;;;;;;7.07;3.43;;;13.90;99.90;;;13.56;76.82;99812.00;5014177;28;20226;-77
2023/03/30 10:34:52;;;;;;;5.63;2.83;;;14.10;99.90;;;13.56;76.70;99808.50;5013937;28;20195;-77
2023/03/30 10:37:32;;;;;;;7.17;2.97;;;14.10;99.90;;;13.57;75.62;99797.53;5013887;28;20192;-77
2023/03/30 10:40:16;;;;;;;8.87;3.30;;;14.10;99.90;;;13.59;75.27;99808.94;5013805;28;20219;-78
2023/03/30 10:42:54;;;;;;;7.57;3.40;;;14.10;99.90;;;13.55;75.74;99817.59;5013832;28;20589;-78
2023/03/30 10:45:39;;;;;;;10.77;3.50;;;14.10;99.90;;;13.51;74.77;99822.56;5013701;28;20302;-77
2023/03/30 10:48:34;;;;;;;9.17;3.70;;;14.10;99.80;;;13.49;75.44;99827.28;5013782;28;20196;-77
2023/03/30 10:51:20;;;;;;;7.90;3.30;;;14.10;99.90;;;13.49;74.08;99821.09;5013739;28;20187;-77
2023/03/30 10:54:05;;;;;;;7.40;3.50;;;14.00;99.70;;;13.46;74.61;99816.94;5013709;28;20200;-77
2023/03/30 10:56:45;;;;;;;7.80;4.20;;;14.00;99.80;;;13.47;75.66;99844.66;5013666;28;20223;-77
2023/03/30 10:59:35;;;;;;;8.40;3.50;;;14.00;99.90;;;13.36;78.43;99872.09;5013681;28;20195;-77
2023/03/30 11:02:34;;;;;;;2.47;1.97;;;13.90;99.90;;;13.05;75.75;99884.09;5015672;28;20216;-77